createdAt,value
2023-02-24T00:00:32.737Z,101100.56
2023-02-24T00:03:11.163Z,101096.59
2023-02-24T00:05:44.633Z,101092.41
2023-02-24T00:08:12.740Z,101093.19
2023-02-24T00:10:40.760Z,101083.66
2023-02-24T00:13:08.913Z,101088.56
2023-02-24T00:15:36.881Z,101084.84
2023-02-24T00:18:07.249Z,101085.59
2023-02-24T00:20:36.773Z,101083.41
2023-02-24T00:23:04.844Z,101078.31
2023-02-24T00:25:32.758Z,101079.88
2023-02-24T00:28:01.840Z,101077.94
2023-02-24T00:30:33.107Z,101074.41
2023-02-24T00:33:03.755Z,101072.88
2023-02-24T00:35:33.405Z,101068.03
2023-02-24T00:38:01.542Z,101064.44
2023-02-24T00:40:30.672Z,101057.13
2023-02-24T00:42:59.241Z,101052.38
2023-02-24T00:45:30.976Z,101047.47
2023-02-24T00:47:59.625Z,101047.00
2023-02-24T00:50:27.591Z,101033.50
2023-02-24T00:52:57.314Z,101023.38
2023-02-24T00:55:27.864Z,101028.13
2023-02-24T00:57:56.298Z,101032.44
2023-02-24T01:00:25.899Z,101025.16
2023-02-24T01:02:53.873Z,101028.13
2023-02-24T01:05:21.881Z,101014.94
2023-02-24T01:07:50.006Z,101004.59
2023-02-24T01:10:20.908Z,101007.56
2023-02-24T01:12:54.019Z,101006.97
2023-02-24T01:15:24.361Z,100986.91
2023-02-24T01:17:52.357Z,100988.50
2023-02-24T01:20:20.609Z,100982.44
2023-02-24T01:22:50.499Z,100984.44
2023-02-24T01:25:20.795Z,100982.72
2023-02-24T01:27:49.177Z,100969.97
2023-02-24T01:30:18.619Z,100968.75
2023-02-24T01:32:48.291Z,100962.91
2023-02-24T01:35:17.790Z,100958.53
2023-02-24T01:37:46.448Z,100961.44
2023-02-24T01:40:20.833Z,100958.00
2023-02-24T01:42:51.205Z,100950.69
2023-02-24T01:45:26.013Z,100944.16
2023-02-24T01:47:55.886Z,100947.63
2023-02-24T01:50:26.878Z,100949.50
2023-02-24T01:52:58.940Z,100944.09
2023-02-24T01:55:32.186Z,100930.72
2023-02-24T01:58:05.289Z,100931.44
2023-02-24T02:00:45.135Z,100929.72
2023-02-24T02:03:25.334Z,100926.84
2023-02-24T02:05:59.030Z,100927.59
2023-02-24T02:08:28.148Z,100925.66
2023-02-24T02:11:00.407Z,100912.88
2023-02-24T02:13:35.721Z,100915.41
2023-02-24T02:16:26.369Z,100909.66
2023-02-24T02:19:03.626Z,100906.06
2023-02-24T02:21:58.896Z,100900.84
2023-02-24T02:24:43.602Z,100901.22
2023-02-24T02:27:30.308Z,100883.72
2023-02-24T02:30:35.123Z,100879.88
2023-02-24T02:33:40.086Z,100878.25
2023-02-24T02:36:14.992Z,100874.25
2023-02-24T02:38:57.806Z,100874.47
2023-02-24T02:41:38.386Z,100866.31
2023-02-24T02:44:20.625Z,100863.09
2023-02-24T02:46:54.013Z,100859.19
2023-02-24T02:49:32.542Z,100857.97
2023-02-24T02:52:20.993Z,100849.56
2023-02-24T02:54:55.257Z,100843.28
2023-02-24T02:57:32.089Z,100848.25
2023-02-24T03:00:11.640Z,100841.22
2023-02-24T03:02:50.504Z,100843.84
2023-02-24T03:05:29.837Z,100825.47
2023-02-24T03:08:01.198Z,100830.06
2023-02-24T03:10:34.466Z,100826.75
2023-02-24T03:13:13.392Z,100814.69
2023-02-24T03:15:47.623Z,100816.41
2023-02-24T03:18:29.111Z,100817.78
2023-02-24T03:21:07.768Z,100801.31
2023-02-24T03:23:39.059Z,100805.16
2023-02-24T03:26:19.344Z,100797.00
2023-02-24T03:28:59.610Z,100786.06
2023-02-24T03:31:33.323Z,100779.97
2023-02-24T03:34:11.218Z,100775.81
2023-02-24T03:36:42.454Z,100778.16
2023-02-24T03:39:18.109Z,100774.56
2023-02-24T03:41:54.286Z,100765.09
2023-02-24T03:44:42.038Z,100758.00
2023-02-24T03:47:10.862Z,100757.91
2023-02-24T03:49:43.512Z,100751.53
2023-02-24T03:52:22.923Z,100738.44
2023-02-24T03:55:06.621Z,100736.75
2023-02-24T03:57:55.382Z,100734.97
2023-02-24T04:00:34.399Z,100725.75
2023-02-24T04:03:15.330Z,100721.59
2023-02-24T04:05:58.998Z,100721.81
2023-02-24T04:08:39.630Z,100714.28
2023-02-24T04:11:14.656Z,100709.06
2023-02-24T04:13:53.248Z,100701.78
2023-02-24T04:16:33.000Z,100688.16
2023-02-24T04:19:08.793Z,100685.19
2023-02-24T04:21:39.172Z,100669.09
2023-02-24T04:24:15.988Z,100667.06
2023-02-24T04:26:47.001Z,100662.56
2023-02-24T04:29:23.132Z,100659.19
2023-02-24T04:31:56.064Z,100653.09
2023-02-24T04:34:24.923Z,100653.03
2023-02-24T04:36:52.937Z,100638.38
2023-02-24T04:39:25.966Z,100638.38
2023-02-24T04:41:57.847Z,100634.94
2023-02-24T04:44:28.226Z,100628.75
2023-02-24T04:46:56.856Z,100621.69
2023-02-24T04:49:32.743Z,100619.31
2023-02-24T04:52:03.704Z,100613.16
2023-02-24T04:54:34.970Z,100601.56
2023-02-24T04:57:06.928Z,100591.56
2023-02-24T04:59:35.366Z,100587.66
2023-02-24T05:02:04.023Z,100586.00
2023-02-24T05:04:36.234Z,100573.09
2023-02-24T05:07:04.201Z,100564.88
2023-02-24T05:09:33.566Z,100571.75
2023-02-24T05:12:01.640Z,100560.28
2023-02-24T05:14:31.062Z,100552.81
2023-02-24T05:17:00.423Z,100541.34
2023-02-24T05:19:46.405Z,100538.75
2023-02-24T05:22:14.532Z,100531.78
2023-02-24T05:24:44.425Z,100528.78
2023-02-24T05:27:12.422Z,100521.09
2023-02-24T05:29:40.525Z,100512.94
2023-02-24T05:32:08.739Z,100519.91
2023-02-24T05:34:39.228Z,100518.75
2023-02-24T05:37:10.706Z,100505.59
2023-02-24T05:39:38.934Z,100497.06
2023-02-24T05:42:08.298Z,100486.28
2023-02-24T05:44:37.016Z,100483.22
2023-02-24T05:47:05.926Z,100476.25
2023-02-24T05:49:35.651Z,100473.69
2023-02-24T05:52:09.064Z,100475.06
2023-02-24T05:54:39.441Z,100473.13
2023-02-24T05:57:12.197Z,100469.13
2023-02-24T05:59:41.013Z,100467.19
2023-02-24T06:02:12.527Z,100471.41
2023-02-24T06:04:46.779Z,100452.41
2023-02-24T06:07:19.401Z,100456.41
2023-02-24T06:09:50.161Z,100455.09
2023-02-24T06:12:19.914Z,100440.53
2023-02-24T06:14:47.857Z,100445.19
2023-02-24T06:17:17.054Z,100448.69
2023-02-24T06:19:45.304Z,100445.97
2023-02-24T06:22:15.819Z,100445.66
2023-02-24T06:24:45.453Z,100439.09
2023-02-24T06:27:17.876Z,100441.38
2023-02-24T06:29:50.215Z,100436.38
2023-02-24T06:32:19.056Z,100431.09
2023-02-24T06:34:47.367Z,100418.03
2023-02-24T06:37:16.566Z,100422.50
2023-02-24T06:39:44.487Z,100407.31
2023-02-24T06:42:13.932Z,100406.75
2023-02-24T06:44:42.797Z,100404.44
2023-02-24T06:47:16.487Z,100406.78
2023-02-24T06:49:44.739Z,100399.59
2023-02-24T06:52:18.899Z,100387.88
2023-02-24T06:54:49.663Z,100384.38
2023-02-24T06:57:18.007Z,100379.09
2023-02-24T06:59:46.337Z,100378.94
2023-02-24T07:02:17.679Z,100374.88
2023-02-24T07:04:50.668Z,100370.59
2023-02-24T07:07:19.596Z,100370.59
2023-02-24T07:09:47.504Z,100358.59
2023-02-24T07:12:21.051Z,100352.03
2023-02-24T07:14:50.521Z,100359.53
2023-02-24T07:17:21.083Z,100351.94
2023-02-24T07:19:48.950Z,100339.22
2023-02-24T07:22:17.616Z,100336.72
2023-02-24T07:24:46.499Z,100332.66
2023-02-24T07:27:22.113Z,100339.16
2023-02-24T07:29:53.334Z,100330.88
2023-02-24T07:32:25.561Z,100324.72
2023-02-24T07:34:54.199Z,100315.72
2023-02-24T07:37:24.329Z,100307.38
2023-02-24T07:39:54.585Z,100307.66
2023-02-24T07:42:22.653Z,100306.31
2023-02-24T07:44:55.938Z,100305.47
2023-02-24T07:47:26.611Z,100301.59
2023-02-24T07:49:57.215Z,100297.72
2023-02-24T07:52:25.289Z,100287.63
2023-02-24T07:54:55.154Z,100292.06
2023-02-24T07:57:25.187Z,100277.16
2023-02-24T07:59:54.141Z,100279.06
2023-02-24T08:02:23.908Z,100270.53
2023-02-24T08:04:54.285Z,100255.47
2023-02-24T08:07:25.640Z,100249.47
2023-02-24T08:10:11.042Z,100253.75
2023-02-24T08:12:42.685Z,100241.19
2023-02-24T08:15:18.369Z,100243.00
2023-02-24T08:17:48.384Z,100229.56
2023-02-24T08:20:25.228Z,100234.91
2023-02-24T08:22:55.144Z,100230.78
2023-02-24T08:25:35.835Z,100226.63
2023-02-24T08:28:09.270Z,100219.41
2023-02-24T08:30:40.831Z,100210.78
2023-02-24T08:33:10.705Z,100209.28
2023-02-24T08:35:45.415Z,100195.84
2023-02-24T08:38:16.737Z,100196.34
2023-02-24T08:40:55.070Z,100193.63
2023-02-24T08:43:34.431Z,100181.03
2023-02-24T08:46:18.529Z,100172.75
2023-02-24T08:48:49.210Z,100151.69
2023-02-24T08:51:23.213Z,100157.09
2023-02-24T08:53:53.857Z,100155.19
2023-02-24T08:56:27.178Z,100155.75
2023-02-24T08:59:05.659Z,100146.25
2023-02-24T09:01:35.761Z,100140.53
2023-02-24T09:04:06.346Z,100131.25
2023-02-24T09:06:44.218Z,100131.41
2023-02-24T09:09:21.399Z,100123.34
2023-02-24T09:11:56.545Z,100123.56
2023-02-24T09:14:28.515Z,100111.50
2023-02-24T09:17:05.942Z,100108.63
2023-02-24T09:19:55.930Z,100097.78
2023-02-24T09:22:33.096Z,100095.28
2023-02-24T09:25:20.818Z,100102.41
2023-02-24T09:27:52.645Z,100096.97
2023-02-24T09:30:37.817Z,100090.31
2023-02-24T09:33:18.005Z,100085.25
2023-02-24T09:35:51.572Z,100093.56
2023-02-24T09:38:46.569Z,100084.72
2023-02-24T09:41:31.702Z,100080.97
2023-02-24T09:44:08.093Z,100073.25
2023-02-24T09:46:45.383Z,100063.25
2023-02-24T09:49:18.324Z,100065.91
2023-02-24T09:51:53.378Z,100074.06
2023-02-24T09:54:25.654Z,100056.66
2023-02-24T09:57:08.356Z,100058.56
2023-02-24T09:59:51.214Z,100056.88
2023-02-24T10:02:32.955Z,100051.22
2023-02-24T10:05:11.829Z,100052.16
2023-02-24T10:07:47.415Z,100042.91
2023-02-24T10:10:28.082Z,100035.09
2023-02-24T10:13:13.221Z,100036.56
2023-02-24T10:15:59.350Z,100037.53
2023-02-24T10:18:33.588Z,100023.06
2023-02-24T10:21:15.534Z,100024.09
2023-02-24T10:24:05.602Z,100031.09
2023-02-24T10:27:00.738Z,100017.78
2023-02-24T10:29:46.626Z,100011.25
2023-02-24T10:32:25.283Z,100013.25
2023-02-24T10:34:54.858Z,100008.84
2023-02-24T10:37:29.516Z,100002.69
2023-02-24T10:39:59.918Z,99988.75
2023-02-24T10:42:32.715Z,99991.22
2023-02-24T10:45:19.376Z,99988.16
2023-02-24T10:47:57.288Z,99981.97
2023-02-24T10:50:32.248Z,99975.41
2023-02-24T10:53:34.577Z,99965.72
2023-02-24T10:56:41.485Z,99967.38
2023-02-24T10:59:32.412Z,99957.38
2023-02-24T11:02:06.869Z,99949.78
2023-02-24T11:05:16.006Z,99952.84
2023-02-24T11:07:53.915Z,99949.88
2023-02-24T11:10:34.257Z,99941.59
2023-02-24T11:13:20.500Z,99924.09
2023-02-24T11:16:10.046Z,99921.88
2023-02-24T11:18:40.049Z,99919.72
2023-02-24T11:21:10.829Z,99913.56
2023-02-24T11:23:43.354Z,99910.19
2023-02-24T11:26:23.253Z,99897.19
2023-02-24T11:29:17.485Z,99897.88
2023-02-24T11:31:58.610Z,99877.84
2023-02-24T11:34:35.617Z,99870.31
2023-02-24T11:37:16.049Z,99871.44
2023-02-24T11:39:54.557Z,99857.63
2023-02-24T11:42:27.135Z,99866.91
2023-02-24T11:45:03.195Z,99864.66
2023-02-24T11:47:41.665Z,99861.91
2023-02-24T11:50:43.718Z,99857.25
2023-02-24T11:53:21.029Z,99840.63
2023-02-24T11:55:54.551Z,99849.66
2023-02-24T11:58:29.942Z,99839.16
2023-02-24T12:01:02.856Z,99825.94
2023-02-24T12:03:38.020Z,99817.06
2023-02-24T12:06:15.341Z,99820.53
2023-02-24T12:08:46.964Z,99825.56
2023-02-24T12:11:24.355Z,99817.16
2023-02-24T12:14:05.070Z,99805.03
2023-02-24T12:16:37.901Z,99802.94
2023-02-24T12:19:18.647Z,99795.09
2023-02-24T12:21:52.745Z,99795.22
2023-02-24T12:24:21.445Z,99793.91
2023-02-24T12:27:03.209Z,99781.72
2023-02-24T12:29:52.536Z,99768.03
2023-02-24T12:32:30.360Z,99782.31
2023-02-24T12:35:09.833Z,99786.00
2023-02-24T12:37:56.276Z,99777.41
2023-02-24T12:40:36.949Z,99775.78
2023-02-24T12:43:16.015Z,99777.84
2023-02-24T12:45:53.671Z,99778.25
2023-02-24T12:48:37.055Z,99762.44
2023-02-24T12:51:11.276Z,99766.09
2023-02-24T12:53:46.963Z,99751.06
2023-02-24T12:56:22.385Z,99756.38
2023-02-24T12:58:53.846Z,99747.78
2023-02-24T13:01:26.822Z,99740.44
2023-02-24T13:04:14.472Z,99745.44
2023-02-24T13:06:58.905Z,99731.97
2023-02-24T13:09:39.474Z,99733.34
2023-02-24T13:12:16.860Z,99722.56
2023-02-24T13:14:46.496Z,99724.91
2023-02-24T13:17:21.743Z,99711.53
2023-02-24T13:19:53.457Z,99699.72
2023-02-24T13:22:27.049Z,99696.44
2023-02-24T13:25:02.842Z,99690.38
2023-02-24T13:27:36.896Z,99694.94
2023-02-24T13:30:24.609Z,99685.81
2023-02-24T13:33:03.639Z,99688.56
2023-02-24T13:35:37.070Z,99681.47
2023-02-24T13:38:36.881Z,99678.47
2023-02-24T13:41:20.970Z,99665.31
2023-02-24T13:43:58.163Z,99667.34
2023-02-24T13:46:28.456Z,99678.91
2023-02-24T13:49:18.977Z,99673.38
2023-02-24T13:52:03.714Z,99667.09
2023-02-24T13:54:59.430Z,99681.97
2023-02-24T13:57:46.592Z,99678.59
2023-02-24T14:00:26.552Z,99674.97
2023-02-24T14:02:55.517Z,99666.78
2023-02-24T14:05:28.003Z,99659.75
2023-02-24T14:07:57.453Z,99644.00
2023-02-24T14:10:29.641Z,99641.28
2023-02-24T14:13:06.544Z,99635.25
2023-02-24T14:15:35.785Z,99630.56
2023-02-24T14:18:06.426Z,99634.28
2023-02-24T14:20:35.500Z,99632.59
2023-02-24T14:23:04.299Z,99625.13
2023-02-24T14:25:39.444Z,99627.16
2023-02-24T14:28:07.707Z,99618.03
2023-02-24T14:30:38.337Z,99617.69
2023-02-24T14:33:08.567Z,99621.59
2023-02-24T14:35:40.391Z,99612.19
2023-02-24T14:38:28.148Z,99617.69
2023-02-24T14:40:57.632Z,99617.38
2023-02-24T14:43:25.790Z,99610.69
2023-02-24T14:45:55.131Z,99607.56
2023-02-24T14:48:26.676Z,99604.34
2023-02-24T14:50:58.294Z,99586.13
2023-02-24T14:53:30.898Z,99584.00
2023-02-24T14:56:05.838Z,99583.13
2023-02-24T14:58:42.059Z,99575.88
2023-02-24T15:01:19.466Z,99579.13
2023-02-24T15:03:50.388Z,99576.69
2023-02-24T15:06:23.842Z,99569.91
2023-02-24T15:08:59.356Z,99568.78
2023-02-24T15:11:31.218Z,99588.50
2023-02-24T15:14:02.970Z,99575.66
2023-02-24T15:16:40.415Z,99573.31
2023-02-24T15:19:26.345Z,99580.78
2023-02-24T15:21:55.136Z,99574.66
2023-02-24T15:24:27.471Z,99582.13
2023-02-24T15:27:00.927Z,99571.81
2023-02-24T15:29:30.933Z,99568.94
2023-02-24T15:32:01.277Z,99569.56
2023-02-24T15:34:32.181Z,99563.75
2023-02-24T15:37:04.517Z,99564.69
2023-02-24T15:39:36.973Z,99556.34
2023-02-24T15:42:15.148Z,99559.06
2023-02-24T15:44:52.998Z,99551.59
2023-02-24T15:47:24.755Z,99554.34
2023-02-24T15:49:52.798Z,99550.81
2023-02-24T15:52:24.439Z,99548.59
2023-02-24T15:54:53.432Z,99541.06
2023-02-24T15:57:23.042Z,99538.28
2023-02-24T15:59:51.126Z,99543.75
2023-02-24T16:02:21.308Z,99547.81
2023-02-24T16:04:50.619Z,99540.38
2023-02-24T16:07:22.637Z,99531.31
2023-02-24T16:09:55.582Z,99537.34
2023-02-24T16:12:29.435Z,99533.25
2023-02-24T16:15:03.254Z,99533.69
2023-02-24T16:17:34.656Z,99540.09
2023-02-24T16:20:08.514Z,99535.22
2023-02-24T16:22:36.877Z,99531.00
2023-02-24T16:25:05.180Z,99531.00
2023-02-24T16:27:35.156Z,99529.34
2023-02-24T16:30:03.260Z,99530.66
2023-02-24T16:32:31.303Z,99525.44
2023-02-24T16:34:59.350Z,99531.63
2023-02-24T16:37:30.181Z,99527.69
2023-02-24T16:39:59.733Z,99524.00
2023-02-24T16:42:27.695Z,99521.66
2023-02-24T16:44:57.064Z,99531.00
2023-02-24T16:47:26.366Z,99527.41
2023-02-24T16:49:59.160Z,99529.44
2023-02-24T16:52:28.554Z,99534.63
2023-02-24T16:54:56.574Z,99535.81
2023-02-24T16:57:25.877Z,99531.97
2023-02-24T16:59:53.746Z,99531.00
2023-02-24T17:02:26.470Z,99522.66
2023-02-24T17:04:54.636Z,99532.59
2023-02-24T17:07:42.704Z,99534.50
2023-02-24T17:10:11.551Z,99546.19
2023-02-24T17:12:39.520Z,99544.91
2023-02-24T17:15:10.191Z,99537.78
2023-02-24T17:17:40.297Z,99539.63
2023-02-24T17:20:09.546Z,99543.13
2023-02-24T17:22:37.835Z,99539.50
2023-02-24T17:25:07.256Z,99533.66
2023-02-24T17:27:35.266Z,99546.81
2023-02-24T17:30:16.272Z,99545.53
2023-02-24T17:32:50.116Z,99537.06
2023-02-24T17:35:18.670Z,99546.63
2023-02-24T17:37:46.599Z,99544.56
2023-02-24T17:40:14.993Z,99539.81
2023-02-24T17:42:44.100Z,99553.03
2023-02-24T17:45:14.314Z,99558.44
2023-02-24T17:47:49.850Z,99556.75
2023-02-24T17:50:17.908Z,99555.78
2023-02-24T17:52:45.900Z,99557.78
2023-02-24T17:55:16.836Z,99549.00
2023-02-24T17:57:45.722Z,99548.50
2023-02-24T18:00:15.727Z,99547.22
2023-02-24T18:02:43.814Z,99552.94
2023-02-24T18:05:13.316Z,99548.69
2023-02-24T18:07:41.214Z,99551.22
2023-02-24T18:10:09.874Z,99552.28
2023-02-24T18:12:37.992Z,99544.66
2023-02-24T18:15:09.136Z,99548.97
2023-02-24T18:17:37.725Z,99542.94
2023-02-24T18:20:06.409Z,99551.78
2023-02-24T18:22:35.984Z,99556.56
2023-02-24T18:25:04.132Z,99547.69
2023-02-24T18:27:32.041Z,99544.56
2023-02-24T18:29:59.929Z,99554.41
2023-02-24T18:32:28.470Z,99556.78
2023-02-24T18:34:56.549Z,99548.16
2023-02-24T18:37:24.437Z,99550.59
2023-02-24T18:39:54.134Z,99558.59
2023-02-24T18:42:22.064Z,99556.28
2023-02-24T18:44:50.077Z,99559.41
2023-02-24T18:47:20.140Z,99557.38
2023-02-24T18:49:48.046Z,99556.78
2023-02-24T18:52:15.927Z,99561.50
2023-02-24T18:54:43.864Z,99560.66
2023-02-24T18:57:15.964Z,99560.63
2023-02-24T18:59:44.139Z,99564.78
2023-02-24T19:02:13.841Z,99564.13
2023-02-24T19:04:43.919Z,99562.78
2023-02-24T19:07:12.048Z,99554.69
2023-02-24T19:09:41.710Z,99555.56
2023-02-24T19:12:10.333Z,99559.72
2023-02-24T19:14:39.788Z,99560.72
2023-02-24T19:17:08.204Z,99560.81
2023-02-24T19:19:36.138Z,99566.88
2023-02-24T19:22:04.565Z,99563.06
2023-02-24T19:24:32.503Z,99561.69
2023-02-24T19:27:00.831Z,99561.63
2023-02-24T19:29:28.843Z,99560.03
2023-02-24T19:31:58.377Z,99547.13
2023-02-24T19:34:26.319Z,99551.13
2023-02-24T19:36:54.328Z,99556.13
2023-02-24T19:39:22.248Z,99564.50
2023-02-24T19:41:50.213Z,99553.59
2023-02-24T19:44:18.390Z,99555.06
2023-02-24T19:46:46.209Z,99556.38
2023-02-24T19:49:15.512Z,99547.53
2023-02-24T19:51:47.131Z,99552.91
2023-02-24T19:54:16.245Z,99562.13
2023-02-24T19:56:44.168Z,99550.59
2023-02-24T19:59:12.612Z,99554.63
2023-02-24T20:01:40.665Z,99562.38
2023-02-24T20:04:08.577Z,99565.34
2023-02-24T20:06:40.148Z,99561.13
2023-02-24T20:09:10.649Z,99562.25
2023-02-24T20:11:39.843Z,99559.72
2023-02-24T20:14:08.929Z,99557.06
2023-02-24T20:16:38.587Z,99566.38
2023-02-24T20:19:09.272Z,99559.47
2023-02-24T20:21:39.778Z,99562.13
2023-02-24T20:24:13.222Z,99562.13
2023-02-24T20:26:42.738Z,99577.44
2023-02-24T20:29:11.560Z,99568.28
2023-02-24T20:31:40.115Z,99560.63
2023-02-24T20:34:09.299Z,99577.94
2023-02-24T20:36:39.346Z,99573.56
2023-02-24T20:39:07.828Z,99572.53
2023-02-24T20:41:35.907Z,99581.66
2023-02-24T20:44:04.084Z,99568.25
2023-02-24T20:46:33.385Z,99566.53
2023-02-24T20:49:04.366Z,99574.44
2023-02-24T20:51:34.054Z,99576.59
2023-02-24T20:54:03.516Z,99571.94
2023-02-24T20:56:35.776Z,99572.97
2023-02-24T20:59:06.791Z,99572.78
2023-02-24T21:01:37.064Z,99574.63
2023-02-24T21:04:06.804Z,99570.63
2023-02-24T21:06:35.108Z,99570.81
2023-02-24T21:09:06.714Z,99573.38
2023-02-24T21:11:35.404Z,99583.88
2023-02-24T21:14:04.259Z,99582.38
2023-02-24T21:16:38.711Z,99581.53
2023-02-24T21:19:06.622Z,99586.72
2023-02-24T21:21:34.897Z,99584.91
2023-02-24T21:24:04.383Z,99591.25
2023-02-24T21:26:32.384Z,99607.16
2023-02-24T21:29:00.549Z,99594.22
2023-02-24T21:31:28.970Z,99600.16
2023-02-24T21:33:57.417Z,99595.03
2023-02-24T21:36:28.183Z,99602.97
2023-02-24T21:38:56.543Z,99608.06
2023-02-24T21:41:26.216Z,99612.31
2023-02-24T21:43:55.960Z,99621.47
2023-02-24T21:46:28.482Z,99630.00
2023-02-24T21:48:57.183Z,99627.69
2023-02-24T21:51:26.247Z,99636.25
2023-02-24T21:53:56.143Z,99638.72
2023-02-24T21:56:27.137Z,99640.44
2023-02-24T21:58:58.408Z,99641.25
2023-02-24T22:01:28.543Z,99641.25
2023-02-24T22:03:58.053Z,99646.00
2023-02-24T22:06:30.277Z,99645.09
2023-02-24T22:08:59.638Z,99652.78
2023-02-24T22:11:31.181Z,99658.91
2023-02-24T22:13:59.559Z,99666.56
2023-02-24T22:16:27.780Z,99669.19
2023-02-24T22:18:56.827Z,99678.38
2023-02-24T22:21:27.772Z,99668.06
2023-02-24T22:23:58.333Z,99663.34
2023-02-24T22:26:29.021Z,99671.66
2023-02-24T22:28:59.233Z,99673.66
2023-02-24T22:31:31.170Z,99680.25
2023-02-24T22:33:59.734Z,99668.72
2023-02-24T22:36:29.548Z,99684.69
2023-02-24T22:38:59.293Z,99680.63
2023-02-24T22:41:31.667Z,99685.06
2023-02-24T22:44:00.220Z,99695.38
2023-02-24T22:46:30.861Z,99683.09
2023-02-24T22:48:59.658Z,99688.47
2023-02-24T22:51:28.767Z,99686.41
2023-02-24T22:53:58.786Z,99685.84
2023-02-24T22:56:30.140Z,99691.03
2023-02-24T22:59:00.734Z,99691.09
2023-02-24T23:01:33.688Z,99701.09
2023-02-24T23:04:02.853Z,99694.66
2023-02-24T23:06:31.843Z,99697.13
2023-02-24T23:09:02.070Z,99699.56
2023-02-24T23:11:33.634Z,99696.59
2023-02-24T23:14:03.472Z,99694.22
2023-02-24T23:16:36.040Z,99708.66
2023-02-24T23:19:07.471Z,99702.84
2023-02-24T23:21:39.063Z,99701.56
2023-02-24T23:24:10.996Z,99703.13
2023-02-24T23:26:42.652Z,99710.31
2023-02-24T23:29:11.714Z,99707.66
2023-02-24T23:31:40.821Z,99722.41
2023-02-24T23:34:10.812Z,99711.06
2023-02-24T23:36:40.851Z,99726.94
2023-02-24T23:39:09.574Z,99718.38
2023-02-24T23:41:38.308Z,99721.47
2023-02-24T23:44:08.651Z,99729.28
2023-02-24T23:46:37.932Z,99738.44
2023-02-24T23:49:06.430Z,99748.00
2023-02-24T23:51:47.449Z,99745.44
2023-02-24T23:54:16.528Z,99751.06
2023-02-24T23:56:44.571Z,99743.91
2023-02-24T23:59:13.833Z,99754.38
